Airfield :







YOU CAN JOIN US ON...

 
LOGIN :

Register | Disclaimer

   EN    FR    IT 

 









Legend :    VFR   Marginal VFR   IFR   Intensive IFR   Very Intensive IFR
Visi :
Ceiling :
>= 8 km
>= 3000ft
5 to 8 km
1000 to 3000 ft
1500m to 5 km
500 to 1000 ft
800 to 1500m
200 to 500 ft
< 800m
< 200 ft
Symbols :   Thunderstorms  Fog  Heavy snow  Heavy precipitations  Wind > 20 kt






- Airport Elevation : 827 ft


KDDH - William H. Morse State

CURRENT METAR :
  • 091954Z AUTO 17009KT 9SM -RA FEW023 BKN050 OVC070 08/06 A2981 RMK AO2 RAE09B17 SLP098 P0002 T00780061

EXPIRED METARs :
  • 091925Z AUTO 00000KT 4SM -RA BR SCT020 OVC075 08/06 A2982 RMK AO2 RAE09B17 P0000 T00780061
  • 091914Z AUTO 00000KT 2SM BR OVC020 07/06 A2982 RMK AO2 RAE09 P0000 T00720061
  • 091854Z AUTO 00000KT 1/2SM -RA FG OVC021 07/06 A2984 RMK AO2 SLP109 P0001 T00670056
  • 091754Z AUTO 00000KT 1/4SM -RA FG FEW012 BKN025 OVC035 07/06 A2989 RMK AO2 RAB20 SLP127 P0001 60004 T00670056 10067 20039 58036

TAF N/A



MET'MAP, your aeronautical weather chart ! - Copyright ORBIFLY December 2007 - Disclaimer

ORBIFLY MET'MAP TEAM :

Programming & Development : Alexandra Zaïnal
Concept & original design : Baudouin d'Aumeries
Assistance for programming : Marc-Olivier Méhu
Technical & hardware support : Manuel Goepfert

Contact : metmap@orbifly.com




SOURCES & CREDITS :

   NOAA